createdAt,value
2022-08-02T00:01:20.447Z,83.40
2022-08-02T00:03:50.203Z,81.98
2022-08-02T00:06:22.925Z,83.00
2022-08-02T00:08:53.983Z,82.02
2022-08-02T00:11:23.788Z,80.84
2022-08-02T00:13:53.664Z,82.67
2022-08-02T00:16:37.548Z,80.71
2022-08-02T00:19:09.016Z,81.81
2022-08-02T00:21:41.445Z,82.44
2022-08-02T00:24:28.886Z,82.63
2022-08-02T00:27:00.300Z,81.92
2022-08-02T00:29:30.091Z,82.26
2022-08-02T00:32:00.187Z,81.80
2022-08-02T00:34:32.064Z,83.95
2022-08-02T00:37:07.418Z,81.86
2022-08-02T00:39:37.309Z,83.26
2022-08-02T00:42:07.619Z,82.63
2022-08-02T00:44:37.505Z,82.68
2022-08-02T00:47:07.672Z,82.06
2022-08-02T00:49:37.612Z,83.91
2022-08-02T00:52:10.824Z,83.52
2022-08-02T00:54:40.786Z,82.31
2022-08-02T00:57:10.558Z,84.12
2022-08-02T00:59:42.061Z,84.37
2022-08-02T01:02:12.262Z,83.19
2022-08-02T01:04:42.166Z,85.75
2022-08-02T01:07:14.765Z,86.72
2022-08-02T01:09:44.957Z,85.55
2022-08-02T01:12:15.880Z,86.14
2022-08-02T01:14:49.037Z,85.15
2022-08-02T01:17:26.001Z,86.56
2022-08-02T01:20:06.262Z,84.46
2022-08-02T01:23:01.974Z,84.43
2022-08-02T01:25:49.963Z,86.53
2022-08-02T01:28:33.054Z,87.60
2022-08-02T01:31:07.574Z,86.03
2022-08-02T01:33:44.388Z,86.88
2022-08-02T01:36:16.935Z,85.61
2022-08-02T01:38:50.079Z,84.51
2022-08-02T01:41:24.098Z,85.28
2022-08-02T01:44:00.950Z,83.33
2022-08-02T01:46:32.527Z,85.27
2022-08-02T01:49:08.518Z,86.00
2022-08-02T01:51:53.131Z,85.60
2022-08-02T01:54:29.411Z,87.63
2022-08-02T01:57:00.616Z,86.12
2022-08-02T01:59:35.079Z,86.80
2022-08-02T02:02:05.873Z,87.61
2022-08-02T02:04:37.896Z,87.74
2022-08-02T02:07:10.090Z,87.29
2022-08-02T02:09:50.880Z,85.56
2022-08-02T02:12:22.433Z,87.06
2022-08-02T02:14:57.448Z,88.01
2022-08-02T02:17:52.906Z,86.90
2022-08-02T02:20:21.630Z,86.31
2022-08-02T02:22:52.256Z,88.11
2022-08-02T02:25:36.048Z,87.15
2022-08-02T02:28:14.932Z,88.50
2022-08-02T02:30:51.943Z,88.20
2022-08-02T02:33:27.680Z,87.72
2022-08-02T02:36:01.273Z,89.01
2022-08-02T02:38:34.876Z,88.84
2022-08-02T02:41:08.023Z,89.25
2022-08-02T02:43:40.918Z,89.16
2022-08-02T02:46:15.769Z,90.69
2022-08-02T02:48:45.856Z,91.11
2022-08-02T02:51:16.597Z,89.73
2022-08-02T02:54:32.033Z,91.50
2022-08-02T02:56:41.891Z,90.53
2022-08-02T02:59:12.975Z,89.92
2022-08-02T03:01:56.910Z,91.00
2022-08-02T03:04:55.261Z,93.44
2022-08-02T03:07:19.785Z,92.07
2022-08-02T03:09:54.255Z,90.09
2022-08-02T03:12:31.953Z,90.97
2022-08-02T03:15:03.874Z,91.17
2022-08-02T03:17:49.367Z,91.82
2022-08-02T03:20:21.064Z,92.79
2022-08-02T03:22:51.331Z,93.31
2022-08-02T03:25:21.636Z,92.49
2022-08-02T03:27:51.380Z,92.74
2022-08-02T03:30:24.748Z,93.01
2022-08-02T03:32:57.320Z,94.04
2022-08-02T03:35:27.161Z,93.07
2022-08-02T03:37:58.792Z,92.87
2022-08-02T03:40:29.751Z,94.32
2022-08-02T03:43:00.125Z,92.96
2022-08-02T03:45:30.764Z,93.34
2022-08-02T03:48:12.635Z,94.08
2022-08-02T03:50:54.557Z,94.82
2022-08-02T03:53:25.773Z,96.51
2022-08-02T03:55:56.785Z,95.80
2022-08-02T03:58:27.642Z,95.29
2022-08-02T04:00:59.336Z,94.39
2022-08-02T04:03:31.789Z,95.61
2022-08-02T04:06:04.564Z,96.03
2022-08-02T04:08:38.371Z,98.47
2022-08-02T04:11:21.286Z,99.00
2022-08-02T04:13:51.134Z,96.75
2022-08-02T04:16:24.371Z,96.26
2022-08-02T04:18:59.421Z,94.95
2022-08-02T04:21:48.432Z,95.97
2022-08-02T04:24:25.216Z,95.96
2022-08-02T04:27:06.600Z,93.37
2022-08-02T04:29:47.035Z,93.55
2022-08-02T04:32:17.735Z,93.92
2022-08-02T04:35:17.795Z,93.56
2022-08-02T04:38:08.566Z,96.12
2022-08-02T04:40:31.662Z,94.24
2022-08-02T04:43:01.552Z,93.91
2022-08-02T04:45:33.506Z,95.34
2022-08-02T04:48:05.533Z,94.69
2022-08-02T04:50:38.745Z,94.06
2022-08-02T04:53:08.491Z,92.92
2022-08-02T04:55:38.256Z,92.83
2022-08-02T04:58:36.952Z,92.12
2022-08-02T05:00:57.839Z,92.30
2022-08-02T05:03:27.807Z,91.76
2022-08-02T05:06:00.820Z,91.90
2022-08-02T05:08:30.632Z,90.82
2022-08-02T05:11:00.440Z,92.44
2022-08-02T05:13:30.397Z,90.50
2022-08-02T05:16:03.204Z,91.63
2022-08-02T05:18:33.486Z,90.10
2022-08-02T05:21:06.434Z,91.05
2022-08-02T05:23:36.248Z,89.38
2022-08-02T05:26:06.006Z,87.50
2022-08-02T05:28:35.746Z,87.46
2022-08-02T05:31:06.423Z,85.47
2022-08-02T05:33:43.055Z,85.54
2022-08-02T05:36:15.826Z,85.66
2022-08-02T05:38:49.744Z,84.31
2022-08-02T05:41:19.853Z,81.19
2022-08-02T05:43:50.361Z,80.28
2022-08-02T05:46:20.076Z,79.27
2022-08-02T05:48:49.796Z,80.38
2022-08-02T05:51:26.668Z,81.51
2022-08-02T05:54:05.619Z,82.59
2022-08-02T05:56:39.056Z,81.89
2022-08-02T05:59:20.825Z,82.63
2022-08-02T06:01:52.132Z,79.63
2022-08-02T06:04:30.694Z,80.63
2022-08-02T06:07:06.817Z,80.28
2022-08-02T06:09:37.748Z,81.40
2022-08-02T06:12:10.138Z,80.99
2022-08-02T06:14:40.816Z,79.74
2022-08-02T06:17:11.626Z,76.19
2022-08-02T06:19:51.082Z,74.54
2022-08-02T06:22:33.203Z,74.44
2022-08-02T06:25:11.510Z,73.86
2022-08-02T06:27:57.845Z,74.58
2022-08-02T06:30:27.893Z,75.02
2022-08-02T06:32:58.390Z,74.80
2022-08-02T06:35:31.851Z,74.80
2022-08-02T06:38:06.350Z,72.94
2022-08-02T06:40:41.976Z,72.02
2022-08-02T06:43:16.131Z,71.27
2022-08-02T06:45:45.875Z,70.76
2022-08-02T06:48:15.900Z,70.00
2022-08-02T06:50:46.050Z,69.08
2022-08-02T06:53:18.361Z,68.75
2022-08-02T06:55:48.063Z,67.85
2022-08-02T06:58:17.850Z,67.68
2022-08-02T07:00:47.733Z,66.70
2022-08-02T07:03:17.563Z,65.24
2022-08-02T07:05:48.636Z,64.46
2022-08-02T07:08:23.099Z,64.83
2022-08-02T07:10:52.868Z,63.98
2022-08-02T07:13:22.728Z,62.80
2022-08-02T07:15:52.829Z,61.30
2022-08-02T07:18:22.647Z,61.28
2022-08-02T07:20:52.449Z,60.96
2022-08-02T07:23:24.904Z,60.66
2022-08-02T07:26:02.905Z,59.67
2022-08-02T07:28:34.028Z,59.37
2022-08-02T07:31:03.745Z,58.29
2022-08-02T07:33:38.187Z,58.61
2022-08-02T07:36:16.961Z,58.53
2022-08-02T07:38:54.885Z,57.23
2022-08-02T07:41:24.911Z,57.43
2022-08-02T07:43:54.712Z,55.96
2022-08-02T07:46:24.408Z,55.38
2022-08-02T07:48:55.069Z,54.34
2022-08-02T07:51:25.292Z,54.32
2022-08-02T07:54:02.737Z,53.74
2022-08-02T07:56:33.683Z,54.87
2022-08-02T07:59:03.415Z,53.72
2022-08-02T08:01:33.360Z,52.57
2022-08-02T08:04:06.015Z,52.90
2022-08-02T08:06:35.837Z,52.14
2022-08-02T08:09:08.151Z,52.18
2022-08-02T08:11:37.964Z,50.42
2022-08-02T08:14:11.176Z,51.64
2022-08-02T08:16:44.581Z,51.30
2022-08-02T08:19:14.265Z,51.88
2022-08-02T08:21:43.995Z,50.55
2022-08-02T08:24:16.304Z,50.65
2022-08-02T08:26:46.005Z,52.20
2022-08-02T08:29:15.960Z,51.23
2022-08-02T08:31:45.842Z,49.99
2022-08-02T08:34:15.919Z,49.77
2022-08-02T08:36:45.946Z,48.77
2022-08-02T08:39:18.427Z,49.74
2022-08-02T08:41:48.144Z,49.67
2022-08-02T08:44:17.889Z,48.79
2022-08-02T08:46:50.518Z,46.95
2022-08-02T08:49:26.280Z,48.77
2022-08-02T08:51:58.903Z,47.95
2022-08-02T08:54:32.980Z,48.27
2022-08-02T08:57:03.538Z,47.81
2022-08-02T08:59:39.007Z,48.08
2022-08-02T09:02:09.626Z,46.21
2022-08-02T09:04:54.896Z,46.22
2022-08-02T09:07:25.027Z,46.66
2022-08-02T09:09:57.523Z,46.36
2022-08-02T09:12:27.441Z,46.30
2022-08-02T09:14:57.150Z,46.19
2022-08-02T09:17:27.153Z,45.87
2022-08-02T09:20:10.460Z,45.39
2022-08-02T09:22:40.254Z,45.71
2022-08-02T09:25:18.554Z,46.32
2022-08-02T09:27:51.445Z,45.87
2022-08-02T09:30:21.339Z,45.75
2022-08-02T09:32:51.339Z,45.10
2022-08-02T09:36:07.117Z,45.26
2022-08-02T09:38:26.129Z,44.34
2022-08-02T09:40:59.402Z,44.38
2022-08-02T09:44:04.049Z,45.00
2022-08-02T09:46:31.503Z,44.68
2022-08-02T09:49:03.773Z,44.62
2022-08-02T09:51:36.200Z,44.44
2022-08-02T09:54:09.435Z,44.90
2022-08-02T09:56:47.702Z,44.34
2022-08-02T09:59:18.031Z,43.21
2022-08-02T10:01:50.458Z,44.23
2022-08-02T10:04:24.947Z,44.79
2022-08-02T10:06:56.419Z,43.79
2022-08-02T10:09:26.385Z,43.64
2022-08-02T10:11:58.866Z,42.75
2022-08-02T10:14:29.547Z,43.05
2022-08-02T10:17:00.452Z,43.00
2022-08-02T10:20:02.309Z,44.10
2022-08-02T10:22:20.631Z,45.13
2022-08-02T10:24:52.223Z,45.53
2022-08-02T10:27:26.233Z,46.28
2022-08-02T10:30:00.493Z,45.70
2022-08-02T10:32:33.159Z,46.07
2022-08-02T10:35:20.154Z,47.44
2022-08-02T10:38:01.482Z,47.42
2022-08-02T10:40:46.238Z,47.68
2022-08-02T10:43:45.503Z,46.87
2022-08-02T10:46:37.649Z,47.33
2022-08-02T10:52:09.066Z,48.67
2022-08-02T10:54:42.557Z,49.59
2022-08-02T10:57:24.210Z,49.69
2022-08-02T10:59:59.946Z,48.89
2022-08-02T11:02:42.403Z,45.79
2022-08-02T11:05:18.141Z,45.42
2022-08-02T11:07:50.942Z,45.41
2022-08-02T11:10:38.129Z,44.69
2022-08-02T11:13:16.967Z,43.90
2022-08-02T11:16:03.696Z,43.44
2022-08-02T11:19:07.627Z,43.61
2022-08-02T11:21:38.518Z,42.52
2022-08-02T11:24:30.438Z,42.11
2022-08-02T11:27:02.169Z,41.84
2022-08-02T11:29:39.446Z,41.18
2022-08-02T11:32:19.002Z,40.90
2022-08-02T11:34:51.903Z,39.57
2022-08-02T11:37:31.346Z,40.21
2022-08-02T11:40:01.248Z,40.60
2022-08-02T11:42:38.385Z,40.45
2022-08-02T11:45:10.400Z,39.44
2022-08-02T11:47:52.019Z,40.04
2022-08-02T11:50:29.722Z,39.85
2022-08-02T11:53:00.680Z,39.14
2022-08-02T11:55:31.795Z,39.09
2022-08-02T11:58:04.328Z,39.35
2022-08-02T12:00:35.052Z,39.11
2022-08-02T12:03:07.746Z,37.85
2022-08-02T12:06:05.498Z,38.93
2022-08-02T12:08:28.826Z,38.10
2022-08-02T12:11:00.533Z,37.30
2022-08-02T12:13:30.242Z,37.18
2022-08-02T12:16:19.968Z,37.47
2022-08-02T12:19:06.466Z,36.33
2022-08-02T12:21:36.519Z,36.70
2022-08-02T12:24:06.746Z,36.67
2022-08-02T12:26:45.471Z,35.49
2022-08-02T12:29:16.166Z,35.08
2022-08-02T12:32:06.990Z,37.55
2022-08-02T12:34:39.413Z,35.84
2022-08-02T12:37:12.657Z,36.70
2022-08-02T12:39:45.920Z,36.51
2022-08-02T12:42:17.669Z,36.45
2022-08-02T12:44:54.259Z,35.74
2022-08-02T12:47:24.590Z,35.75
2022-08-02T12:50:18.855Z,36.11
2022-08-02T12:52:48.601Z,35.73
2022-08-02T12:55:24.485Z,35.17
2022-08-02T12:57:55.977Z,35.99
2022-08-02T13:00:30.971Z,35.81
2022-08-02T13:03:01.815Z,35.73
2022-08-02T13:05:56.890Z,36.47
2022-08-02T13:08:26.445Z,36.07
2022-08-02T13:10:56.127Z,35.62
2022-08-02T13:13:25.775Z,35.54
2022-08-02T13:15:55.461Z,33.73
2022-08-02T13:18:30.311Z,34.58
2022-08-02T13:21:04.819Z,34.88
2022-08-02T13:23:54.168Z,35.41
2022-08-02T13:26:26.417Z,36.22
2022-08-02T13:28:59.384Z,35.99
2022-08-02T13:31:36.719Z,36.33
2022-08-02T13:34:07.437Z,35.43
2022-08-02T13:36:39.779Z,35.08
2022-08-02T13:39:10.482Z,35.21
2022-08-02T13:41:40.360Z,35.44
2022-08-02T13:44:11.051Z,35.28
2022-08-02T13:46:45.091Z,35.28
2022-08-02T13:49:19.510Z,34.85
2022-08-02T13:51:52.803Z,34.80
2022-08-02T13:54:22.594Z,34.63
2022-08-02T13:56:52.633Z,35.81
2022-08-02T13:59:57.625Z,35.38
2022-08-02T14:02:13.955Z,36.16
2022-08-02T14:04:48.098Z,35.23
2022-08-02T14:07:20.589Z,35.80
2022-08-02T14:09:50.229Z,35.47
2022-08-02T14:12:20.059Z,35.69
2022-08-02T14:14:49.686Z,35.08
2022-08-02T14:17:19.606Z,34.69
2022-08-02T14:19:50.915Z,34.32
2022-08-02T14:22:23.315Z,33.88
2022-08-02T14:24:55.635Z,34.23
2022-08-02T14:27:25.282Z,34.85
2022-08-02T14:29:54.979Z,34.87
2022-08-02T14:32:30.060Z,34.92
2022-08-02T14:35:02.442Z,34.10
2022-08-02T14:37:34.660Z,34.07
2022-08-02T14:40:04.297Z,33.92
2022-08-02T14:42:34.014Z,33.90
2022-08-02T14:45:04.274Z,34.09
2022-08-02T14:47:34.018Z,34.09
2022-08-02T14:50:03.821Z,34.81
2022-08-02T14:52:36.169Z,35.22
2022-08-02T14:55:06.525Z,34.58
2022-08-02T14:57:36.310Z,34.15
2022-08-02T15:00:07.386Z,33.83
2022-08-02T15:02:37.220Z,34.54
2022-08-02T15:05:07.631Z,34.39
2022-08-02T15:07:44.263Z,34.12
2022-08-02T15:10:16.207Z,33.82
2022-08-02T15:12:45.899Z,33.91
2022-08-02T15:15:15.582Z,33.05
2022-08-02T15:17:45.338Z,33.37
2022-08-02T15:20:25.621Z,32.60
2022-08-02T15:22:58.628Z,32.25
2022-08-02T15:25:28.608Z,32.77
2022-08-02T15:27:58.305Z,32.84
2022-08-02T15:30:28.240Z,32.76
2022-08-02T15:32:57.867Z,32.98
2022-08-02T15:35:27.581Z,33.54
2022-08-02T15:37:59.880Z,33.26
2022-08-02T15:40:30.815Z,33.33
2022-08-02T15:43:00.730Z,33.40
2022-08-02T15:45:30.396Z,32.72
2022-08-02T15:48:00.032Z,32.90
2022-08-02T15:50:29.821Z,32.81
2022-08-02T15:53:02.100Z,33.51
2022-08-02T15:55:52.052Z,33.58
2022-08-02T15:58:22.588Z,34.23
2022-08-02T16:00:52.593Z,34.14
2022-08-02T16:03:22.232Z,34.22
2022-08-02T16:05:51.872Z,35.34
2022-08-02T16:08:24.240Z,35.77
2022-08-02T16:10:53.858Z,34.65
2022-08-02T16:13:39.614Z,34.24
2022-08-02T16:16:23.455Z,35.56
2022-08-02T16:18:53.335Z,34.87
2022-08-02T16:21:23.587Z,35.34
2022-08-02T16:24:01.478Z,35.42
2022-08-02T16:26:34.356Z,35.10
2022-08-02T16:29:05.615Z,35.04
2022-08-02T16:31:40.019Z,34.15
2022-08-02T16:34:11.861Z,35.60
2022-08-02T16:36:41.801Z,35.54
2022-08-02T16:39:14.337Z,34.50
2022-08-02T16:41:51.090Z,35.00
2022-08-02T16:44:26.931Z,35.60
2022-08-02T16:47:01.830Z,36.01
2022-08-02T16:50:05.648Z,36.42
2022-08-02T16:52:21.582Z,36.02
2022-08-02T16:54:53.830Z,36.32
2022-08-02T16:57:23.437Z,36.72
2022-08-02T17:00:14.010Z,37.24
2022-08-02T17:02:46.956Z,36.22
2022-08-02T17:05:17.520Z,37.06
2022-08-02T17:08:07.878Z,37.59
2022-08-02T17:10:40.215Z,37.63
2022-08-02T17:13:12.168Z,37.77
2022-08-02T17:16:17.157Z,36.79
2022-08-02T17:18:34.193Z,37.59
2022-08-02T17:21:08.108Z,37.69
2022-08-02T17:24:04.046Z,37.80
2022-08-02T17:26:30.211Z,38.09
2022-08-02T17:29:18.007Z,37.68
2022-08-02T17:32:05.772Z,37.47
2022-08-02T17:34:39.762Z,38.93
2022-08-02T17:37:18.659Z,38.17
2022-08-02T17:39:51.911Z,39.26
2022-08-02T17:42:25.034Z,39.92
2022-08-02T17:45:06.753Z,38.08
2022-08-02T17:48:04.250Z,38.40
2022-08-02T17:50:34.756Z,38.78
2022-08-02T17:53:04.450Z,39.25
2022-08-02T17:55:37.968Z,39.71
2022-08-02T17:58:12.942Z,40.66
2022-08-02T18:00:45.072Z,41.17
2022-08-02T18:03:14.904Z,41.73
2022-08-02T18:05:53.410Z,42.46
2022-08-02T18:08:25.480Z,41.92
2022-08-02T18:10:55.930Z,41.42
2022-08-02T18:13:33.075Z,42.37
2022-08-02T18:16:05.637Z,42.24
2022-08-02T18:18:50.709Z,42.41
2022-08-02T18:21:22.721Z,42.34
2022-08-02T18:23:58.364Z,42.49
2022-08-02T18:26:28.886Z,42.38
2022-08-02T18:29:04.301Z,42.25
2022-08-02T18:34:23.913Z,43.71
2022-08-02T18:36:53.544Z,42.54
2022-08-02T18:39:23.102Z,43.07
2022-08-02T18:41:52.712Z,42.69
2022-08-02T18:44:26.506Z,42.71
2022-08-02T18:46:56.076Z,43.32
2022-08-02T18:49:29.984Z,44.03
2022-08-02T18:52:15.783Z,44.81
2022-08-02T18:55:00.497Z,45.68
2022-08-02T18:58:03.308Z,46.04
2022-08-02T19:00:25.916Z,46.30
2022-08-02T19:02:56.806Z,45.74
2022-08-02T19:05:53.577Z,45.60
2022-08-02T19:08:17.299Z,46.24
2022-08-02T19:10:49.303Z,46.61
2022-08-02T19:13:19.733Z,46.92
2022-08-02T19:15:52.525Z,46.58
2022-08-02T19:18:26.895Z,47.05
2022-08-02T19:21:05.288Z,46.84
2022-08-02T19:23:35.891Z,47.60
2022-08-02T19:26:06.055Z,47.96
2022-08-02T19:28:39.414Z,47.90
2022-08-02T19:31:13.490Z,48.38
2022-08-02T19:34:05.804Z,49.16
2022-08-02T19:36:34.311Z,49.65
2022-08-02T19:39:03.960Z,49.26
2022-08-02T19:41:43.866Z,48.94
2022-08-02T19:44:26.509Z,48.52
2022-08-02T19:47:01.464Z,48.51
2022-08-02T19:49:39.228Z,49.09
2022-08-02T19:52:21.933Z,49.59
2022-08-02T19:54:57.878Z,50.23
2022-08-02T19:57:29.395Z,50.93
2022-08-02T20:00:04.425Z,50.92
2022-08-02T20:02:36.839Z,51.04
2022-08-02T20:05:16.188Z,51.17
2022-08-02T20:07:54.674Z,51.72
2022-08-02T20:10:26.633Z,51.18
2022-08-02T20:12:56.934Z,52.02
2022-08-02T20:15:56.541Z,51.80
2022-08-02T20:21:28.456Z,51.94
2022-08-02T20:23:58.816Z,51.95
2022-08-02T20:26:28.850Z,53.14
2022-08-02T20:29:02.794Z,53.86
2022-08-02T20:31:32.653Z,54.21
2022-08-02T20:34:05.021Z,54.57
2022-08-02T20:36:37.165Z,54.55
2022-08-02T20:39:07.501Z,55.10
2022-08-02T20:41:46.371Z,54.40
2022-08-02T20:47:10.895Z,55.82
2022-08-02T20:50:03.193Z,56.75
2022-08-02T20:52:30.764Z,56.69
2022-08-02T20:55:00.394Z,55.52
2022-08-02T20:57:48.810Z,56.11
2022-08-02T21:00:20.696Z,55.58
2022-08-02T21:02:50.541Z,56.08
2022-08-02T21:05:26.535Z,56.35
2022-08-02T21:08:14.906Z,58.12
2022-08-02T21:10:52.117Z,58.85
2022-08-02T21:13:26.004Z,58.50
2022-08-02T21:15:57.643Z,58.00
2022-08-02T21:18:39.766Z,57.80
2022-08-02T21:21:14.607Z,57.70
2022-08-02T21:23:49.001Z,58.10
2022-08-02T21:26:27.991Z,58.57
2022-08-02T21:29:03.767Z,58.44
2022-08-02T21:31:35.779Z,58.59
2022-08-02T21:34:22.062Z,58.83
2022-08-02T21:36:59.051Z,59.69
2022-08-02T21:39:28.824Z,59.50
2022-08-02T21:41:58.516Z,58.84
2022-08-02T21:44:29.191Z,59.27
2022-08-02T21:47:00.426Z,59.17
2022-08-02T21:50:09.523Z,59.49
2022-08-02T21:55:15.046Z,60.25
2022-08-02T21:57:50.744Z,60.45
2022-08-02T22:00:28.609Z,61.38
2022-08-02T22:02:58.990Z,61.04
2022-08-02T22:05:48.758Z,60.71
2022-08-02T22:08:23.562Z,61.55
2022-08-02T22:11:16.991Z,61.48
2022-08-02T22:13:47.876Z,62.24
2022-08-02T22:16:18.333Z,62.97
2022-08-02T22:18:49.392Z,62.20
2022-08-02T22:21:22.957Z,62.62
2022-08-02T22:23:56.819Z,62.49
2022-08-02T22:26:26.452Z,61.34
2022-08-02T22:28:59.507Z,62.06
2022-08-02T22:31:40.400Z,62.85
2022-08-02T22:34:11.523Z,62.80
2022-08-02T22:36:57.116Z,62.21
2022-08-02T22:39:29.325Z,61.67
2022-08-02T22:42:06.053Z,61.86
2022-08-02T22:44:36.874Z,62.41
2022-08-02T22:47:14.706Z,63.13
2022-08-02T22:49:53.211Z,62.65
2022-08-02T22:52:25.950Z,62.39
2022-08-02T22:54:58.306Z,62.92
2022-08-02T22:57:30.445Z,62.94
2022-08-02T22:58:44.536Z,42.21
2022-08-02T22:58:55.200Z,51.94
2022-08-02T22:59:03.620Z,60.03
2022-08-02T22:59:05.255Z,56.14
2022-08-02T23:00:01.313Z,62.57
2022-08-02T23:02:31.025Z,62.49
2022-08-02T23:05:02.946Z,62.61
2022-08-02T23:07:36.388Z,62.91
2022-08-02T23:10:12.144Z,63.10
2022-08-02T23:12:41.764Z,63.08
2022-08-02T23:15:13.182Z,62.65
2022-08-02T23:17:55.487Z,63.08
2022-08-02T23:20:25.379Z,63.59
2022-08-02T23:22:55.789Z,64.00
2022-08-02T23:25:28.191Z,63.64
2022-08-02T23:27:57.935Z,63.35
2022-08-02T23:30:27.686Z,63.71
2022-08-02T23:32:57.389Z,63.91
2022-08-02T23:35:27.394Z,64.91
2022-08-02T23:38:00.700Z,64.89
2022-08-02T23:40:40.299Z,64.42
2022-08-02T23:43:13.413Z,65.23
2022-08-02T23:45:45.811Z,64.44
2022-08-02T23:48:15.597Z,65.28
2022-08-02T23:50:45.365Z,65.37
2022-08-02T23:53:15.022Z,65.25
2022-08-02T23:55:47.276Z,65.11
2022-08-02T23:58:16.960Z,65.69
